sensor_id;sensor_type;location;lat;lon;timestamp;temperature;humidity
28677;DHT22;15858;48.338;11.078;2022-08-18T00:01:31;19.50;99.90
28677;DHT22;15858;48.338;11.078;2022-08-18T00:03:59;19.70;99.90
28677;DHT22;15858;48.338;11.078;2022-08-18T00:06:29;19.60;99.90
28677;DHT22;15858;48.338;11.078;2022-08-18T00:09:02;19.50;99.90
28677;DHT22;15858;48.338;11.078;2022-08-18T00:11:34;19.60;99.90
28677;DHT22;15858;48.338;11.078;2022-08-18T00:14:13;19.50;99.90
28677;DHT22;15858;48.338;11.078;2022-08-18T00:16:50;19.40;99.90
28677;DHT22;15858;48.338;11.078;2022-08-18T00:19:17;19.40;99.90
28677;DHT22;15858;48.338;11.078;2022-08-18T00:21:43;19.40;99.90
28677;DHT22;15858;48.338;11.078;2022-08-18T00:24:10;19.30;99.90
28677;DHT22;15858;48.338;11.078;2022-08-18T00:26:37;19.20;99.90
28677;DHT22;15858;48.338;11.078;2022-08-18T00:29:04;19.30;99.90
28677;DHT22;15858;48.338;11.078;2022-08-18T00:31:31;19.30;99.90
28677;DHT22;15858;48.338;11.078;2022-08-18T00:33:58;19.40;99.90
28677;DHT22;15858;48.338;11.078;2022-08-18T00:36:25;19.40;99.90
28677;DHT22;15858;48.338;11.078;2022-08-18T00:38:52;19.30;99.90
28677;DHT22;15858;48.338;11.078;2022-08-18T00:41:20;19.40;99.90
28677;DHT22;15858;48.338;11.078;2022-08-18T00:43:48;19.30;99.90
28677;DHT22;15858;48.338;11.078;2022-08-18T00:46:22;19.30;99.90
28677;DHT22;15858;48.338;11.078;2022-08-18T00:48:49;19.30;99.90
28677;DHT22;15858;48.338;11.078;2022-08-18T00:51:36;19.20;99.90
28677;DHT22;15858;48.338;11.078;2022-08-18T00:54:18;19.30;99.90
28677;DHT22;15858;48.338;11.078;2022-08-18T00:56:49;19.30;99.90
28677;DHT22;15858;48.338;11.078;2022-08-18T00:59:30;19.30;99.90
28677;DHT22;15858;48.338;11.078;2022-08-18T01:02:01;19.30;99.90
28677;DHT22;15858;48.338;11.078;2022-08-18T01:04:41;19.40;99.90
28677;DHT22;15858;48.338;11.078;2022-08-18T01:07:15;19.40;99.90
28677;DHT22;15858;48.338;11.078;2022-08-18T01:09:42;19.40;99.90
28677;DHT22;15858;48.338;11.078;2022-08-18T01:12:09;19.40;99.90
28677;DHT22;15858;48.338;11.078;2022-08-18T01:14:56;19.40;99.90
28677;DHT22;15858;48.338;11.078;2022-08-18T01:17:23;19.40;99.90
28677;DHT22;15858;48.338;11.078;2022-08-18T01:19:51;19.30;99.90
28677;DHT22;15858;48.338;11.078;2022-08-18T01:22:33;19.30;99.90
28677;DHT22;15858;48.338;11.078;2022-08-18T01:25:01;19.10;99.90
28677;DHT22;15858;48.338;11.078;2022-08-18T01:27:29;19.00;99.90
28677;DHT22;15858;48.338;11.078;2022-08-18T01:29:56;18.90;99.90
28677;DHT22;15858;48.338;11.078;2022-08-18T01:32:22;18.90;99.90
28677;DHT22;15858;48.338;11.078;2022-08-18T01:34:50;19.00;99.90
28677;DHT22;15858;48.338;11.078;2022-08-18T01:37:20;19.00;99.90
28677;DHT22;15858;48.338;11.078;2022-08-18T01:39:47;19.00;99.90
28677;DHT22;15858;48.338;11.078;2022-08-18T01:42:35;19.00;99.90
28677;DHT22;15858;48.338;11.078;2022-08-18T01:45:03;19.10;99.90
28677;DHT22;15858;48.338;11.078;2022-08-18T01:47:32;19.10;99.90
28677;DHT22;15858;48.338;11.078;2022-08-18T01:50:14;19.10;99.90
28677;DHT22;15858;48.338;11.078;2022-08-18T01:52:41;19.10;99.90
28677;DHT22;15858;48.338;11.078;2022-08-18T01:55:08;19.00;99.90
28677;DHT22;15858;48.338;11.078;2022-08-18T01:57:37;19.00;99.90
28677;DHT22;15858;48.338;11.078;2022-08-18T02:00:05;19.00;99.90
28677;DHT22;15858;48.338;11.078;2022-08-18T02:02:32;19.00;99.90
28677;DHT22;15858;48.338;11.078;2022-08-18T02:05:03;18.90;99.90
28677;DHT22;15858;48.338;11.078;2022-08-18T02:07:30;18.80;99.90
28677;DHT22;15858;48.338;11.078;2022-08-18T02:10:04;18.70;99.90
28677;DHT22;15858;48.338;11.078;2022-08-18T02:12:38;18.70;99.90
28677;DHT22;15858;48.338;11.078;2022-08-18T02:15:05;18.70;99.90
28677;DHT22;15858;48.338;11.078;2022-08-18T02:17:37;18.70;99.90
28677;DHT22;15858;48.338;11.078;2022-08-18T02:20:07;18.70;99.90
28677;DHT22;15858;48.338;11.078;2022-08-18T02:22:34;18.70;99.90
28677;DHT22;15858;48.338;11.078;2022-08-18T02:25:02;18.70;99.90
28677;DHT22;15858;48.338;11.078;2022-08-18T02:27:33;18.70;99.90
28677;DHT22;15858;48.338;11.078;2022-08-18T02:30:01;18.70;99.90
28677;DHT22;15858;48.338;11.078;2022-08-18T02:32:28;18.60;99.90
28677;DHT22;15858;48.338;11.078;2022-08-18T02:34:55;18.70;99.90
28677;DHT22;15858;48.338;11.078;2022-08-18T02:37:21;18.60;99.90
28677;DHT22;15858;48.338;11.078;2022-08-18T02:39:48;18.60;99.90
28677;DHT22;15858;48.338;11.078;2022-08-18T02:42:15;18.60;99.90
28677;DHT22;15858;48.338;11.078;2022-08-18T02:44:42;18.50;99.90
28677;DHT22;15858;48.338;11.078;2022-08-18T02:47:09;18.50;99.90
28677;DHT22;15858;48.338;11.078;2022-08-18T02:49:36;18.50;99.90
28677;DHT22;15858;48.338;11.078;2022-08-18T02:52:03;18.50;99.90
28677;DHT22;15858;48.338;11.078;2022-08-18T02:54:29;18.40;99.90
28677;DHT22;15858;48.338;11.078;2022-08-18T02:56:56;18.50;99.90
28677;DHT22;15858;48.338;11.078;2022-08-18T02:59:25;18.40;99.90
28677;DHT22;15858;48.338;11.078;2022-08-18T03:01:54;18.40;99.90
28677;DHT22;15858;48.338;11.078;2022-08-18T03:04:24;18.40;99.90
28677;DHT22;15858;48.338;11.078;2022-08-18T03:06:57;18.40;99.90
28677;DHT22;15858;48.338;11.078;2022-08-18T03:09:25;18.30;99.90
28677;DHT22;15858;48.338;11.078;2022-08-18T03:11:51;18.30;99.90
28677;DHT22;15858;48.338;11.078;2022-08-18T03:14:18;18.30;99.90
28677;DHT22;15858;48.338;11.078;2022-08-18T03:16:46;18.30;99.90
28677;DHT22;15858;48.338;11.078;2022-08-18T03:19:22;18.20;99.90
28677;DHT22;15858;48.338;11.078;2022-08-18T03:21:49;18.20;99.90
28677;DHT22;15858;48.338;11.078;2022-08-18T03:24:16;18.20;99.90
28677;DHT22;15858;48.338;11.078;2022-08-18T03:26:51;18.20;99.90
28677;DHT22;15858;48.338;11.078;2022-08-18T03:29:19;18.10;99.90
28677;DHT22;15858;48.338;11.078;2022-08-18T03:31:46;18.20;99.90
28677;DHT22;15858;48.338;11.078;2022-08-18T03:34:13;18.10;99.90
28677;DHT22;15858;48.338;11.078;2022-08-18T03:36:40;18.20;99.90
28677;DHT22;15858;48.338;11.078;2022-08-18T03:39:09;18.20;99.90
28677;DHT22;15858;48.338;11.078;2022-08-18T03:41:38;18.10;99.90
28677;DHT22;15858;48.338;11.078;2022-08-18T03:44:26;18.10;99.90
28677;DHT22;15858;48.338;11.078;2022-08-18T03:46:52;18.00;99.90
28677;DHT22;15858;48.338;11.078;2022-08-18T03:49:19;18.00;99.90
28677;DHT22;15858;48.338;11.078;2022-08-18T03:51:46;18.10;99.90
28677;DHT22;15858;48.338;11.078;2022-08-18T03:54:15;18.00;99.90
28677;DHT22;15858;48.338;11.078;2022-08-18T03:56:43;17.90;99.90
28677;DHT22;15858;48.338;11.078;2022-08-18T03:59:16;18.00;99.90
28677;DHT22;15858;48.338;11.078;2022-08-18T04:01:44;18.00;99.90
28677;DHT22;15858;48.338;11.078;2022-08-18T04:04:15;18.10;99.90
28677;DHT22;15858;48.338;11.078;2022-08-18T04:06:48;18.10;99.90
28677;DHT22;15858;48.338;11.078;2022-08-18T04:09:15;18.10;99.90
28677;DHT22;15858;48.338;11.078;2022-08-18T04:11:43;18.10;99.90
28677;DHT22;15858;48.338;11.078;2022-08-18T04:14:12;18.00;99.90
28677;DHT22;15858;48.338;11.078;2022-08-18T04:16:40;18.00;99.90
28677;DHT22;15858;48.338;11.078;2022-08-18T04:19:08;18.00;99.90
28677;DHT22;15858;48.338;11.078;2022-08-18T04:21:37;18.00;99.90
28677;DHT22;15858;48.338;11.078;2022-08-18T04:24:05;18.00;99.90
28677;DHT22;15858;48.338;11.078;2022-08-18T04:26:35;18.00;99.90
28677;DHT22;15858;48.338;11.078;2022-08-18T04:29:04;17.90;99.90
28677;DHT22;15858;48.338;11.078;2022-08-18T04:31:31;18.00;99.90
28677;DHT22;15858;48.338;11.078;2022-08-18T04:33:59;18.00;99.90
28677;DHT22;15858;48.338;11.078;2022-08-18T04:36:27;18.00;99.90
28677;DHT22;15858;48.338;11.078;2022-08-18T04:38:55;18.00;99.90
28677;DHT22;15858;48.338;11.078;2022-08-18T04:41:23;18.10;99.90
28677;DHT22;15858;48.338;11.078;2022-08-18T04:43:50;18.10;99.90
28677;DHT22;15858;48.338;11.078;2022-08-18T04:46:17;18.00;99.90
28677;DHT22;15858;48.338;11.078;2022-08-18T04:48:49;18.00;99.90
28677;DHT22;15858;48.338;11.078;2022-08-18T04:51:18;18.10;99.90
28677;DHT22;15858;48.338;11.078;2022-08-18T04:54:05;18.00;99.90
28677;DHT22;15858;48.338;11.078;2022-08-18T04:56:35;18.00;99.90
28677;DHT22;15858;48.338;11.078;2022-08-18T04:59:06;18.00;99.90
28677;DHT22;15858;48.338;11.078;2022-08-18T05:01:39;18.10;99.90
28677;DHT22;15858;48.338;11.078;2022-08-18T05:04:07;18.00;99.90
28677;DHT22;15858;48.338;11.078;2022-08-18T05:06:35;18.00;99.90
28677;DHT22;15858;48.338;11.078;2022-08-18T05:09:05;18.00;99.90
28677;DHT22;15858;48.338;11.078;2022-08-18T05:11:32;18.00;99.90
28677;DHT22;15858;48.338;11.078;2022-08-18T05:14:00;18.00;99.90
28677;DHT22;15858;48.338;11.078;2022-08-18T05:16:28;18.10;99.90
28677;DHT22;15858;48.338;11.078;2022-08-18T05:18:56;18.10;99.90
28677;DHT22;15858;48.338;11.078;2022-08-18T05:21:23;18.20;99.90
28677;DHT22;15858;48.338;11.078;2022-08-18T05:23:50;18.30;99.90
28677;DHT22;15858;48.338;11.078;2022-08-18T05:26:18;18.30;99.90
28677;DHT22;15858;48.338;11.078;2022-08-18T05:28:45;18.30;99.90
28677;DHT22;15858;48.338;11.078;2022-08-18T05:31:18;18.40;99.90
28677;DHT22;15858;48.338;11.078;2022-08-18T05:33:46;18.50;99.90
28677;DHT22;15858;48.338;11.078;2022-08-18T05:36:37;18.40;99.90
28677;DHT22;15858;48.338;11.078;2022-08-18T05:41:49;18.40;99.90
28677;DHT22;15858;48.338;11.078;2022-08-18T05:44:28;18.30;99.90
28677;DHT22;15858;48.338;11.078;2022-08-18T05:47:23;18.30;99.90
28677;DHT22;15858;48.338;11.078;2022-08-18T05:49:47;18.40;99.90
28677;DHT22;15858;48.338;11.078;2022-08-18T05:52:42;18.40;99.90
28677;DHT22;15858;48.338;11.078;2022-08-18T05:55:31;18.50;99.90
28677;DHT22;15858;48.338;11.078;2022-08-18T05:58:00;18.50;99.90
28677;DHT22;15858;48.338;11.078;2022-08-18T06:00:28;18.50;99.90
28677;DHT22;15858;48.338;11.078;2022-08-18T06:03:14;18.60;99.90
28677;DHT22;15858;48.338;11.078;2022-08-18T06:05:54;18.50;99.90
28677;DHT22;15858;48.338;11.078;2022-08-18T06:08:29;18.50;99.90
28677;DHT22;15858;48.338;11.078;2022-08-18T06:10:58;18.50;99.90
28677;DHT22;15858;48.338;11.078;2022-08-18T06:13:25;18.50;99.90
28677;DHT22;15858;48.338;11.078;2022-08-18T06:16:17;18.50;99.90
28677;DHT22;15858;48.338;11.078;2022-08-18T06:27:29;18.50;99.90
28677;DHT22;15858;48.338;11.078;2022-08-18T06:32:52;18.60;99.90
28677;DHT22;15858;48.338;11.078;2022-08-18T06:35:45;18.50;99.90
28677;DHT22;15858;48.338;11.078;2022-08-18T06:40:46;18.60;99.90
28677;DHT22;15858;48.338;11.078;2022-08-18T06:43:14;18.60;99.90
28677;DHT22;15858;48.338;11.078;2022-08-18T06:45:43;18.60;99.90
28677;DHT22;15858;48.338;11.078;2022-08-18T06:48:30;18.60;99.90
28677;DHT22;15858;48.338;11.078;2022-08-18T06:51:00;18.60;99.90
28677;DHT22;15858;48.338;11.078;2022-08-18T06:59:33;18.80;99.90
28677;DHT22;15858;48.338;11.078;2022-08-18T07:02:42;18.80;99.90
28677;DHT22;15858;48.338;11.078;2022-08-18T07:07:41;18.80;99.90
28677;DHT22;15858;48.338;11.078;2022-08-18T07:12:41;19.10;99.90
28677;DHT22;15858;48.338;11.078;2022-08-18T07:15:11;19.00;99.90
28677;DHT22;15858;48.338;11.078;2022-08-18T07:17:38;19.10;99.90
28677;DHT22;15858;48.338;11.078;2022-08-18T07:20:22;19.10;99.90
28677;DHT22;15858;48.338;11.078;2022-08-18T07:23:03;19.20;99.90
28677;DHT22;15858;48.338;11.078;2022-08-18T07:25:45;19.30;99.90
28677;DHT22;15858;48.338;11.078;2022-08-18T07:28:32;19.30;99.90
28677;DHT22;15858;48.338;11.078;2022-08-18T07:31:13;19.30;99.90
28677;DHT22;15858;48.338;11.078;2022-08-18T07:33:51;19.50;99.90
28677;DHT22;15858;48.338;11.078;2022-08-18T07:36:19;19.60;99.90
28677;DHT22;15858;48.338;11.078;2022-08-18T07:38:53;19.70;99.90
28677;DHT22;15858;48.338;11.078;2022-08-18T07:42:00;19.70;99.90
28677;DHT22;15858;48.338;11.078;2022-08-18T07:47:24;19.70;99.90
28677;DHT22;15858;48.338;11.078;2022-08-18T07:49:52;19.80;99.90
28677;DHT22;15858;48.338;11.078;2022-08-18T07:52:44;19.80;99.90
28677;DHT22;15858;48.338;11.078;2022-08-18T07:55:29;19.90;99.90
28677;DHT22;15858;48.338;11.078;2022-08-18T07:58:19;19.90;99.90
28677;DHT22;15858;48.338;11.078;2022-08-18T08:06:44;19.80;99.90
28677;DHT22;15858;48.338;11.078;2022-08-18T08:09:45;20.00;99.90
28677;DHT22;15858;48.338;11.078;2022-08-18T08:12:48;19.90;99.90
28677;DHT22;15858;48.338;11.078;2022-08-18T08:21:09;20.30;99.90
28677;DHT22;15858;48.338;11.078;2022-08-18T08:24:16;20.40;99.90
28677;DHT22;15858;48.338;11.078;2022-08-18T08:27:57;20.30;99.90
28677;DHT22;15858;48.338;11.078;2022-08-18T08:30:24;20.50;99.90
28677;DHT22;15858;48.338;11.078;2022-08-18T08:33:31;20.50;99.90
28677;DHT22;15858;48.338;11.078;2022-08-18T08:36:33;20.60;99.90
28677;DHT22;15858;48.338;11.078;2022-08-18T09:13:59;22.60;99.90
28677;DHT22;15858;48.338;11.078;2022-08-18T09:16:55;22.30;99.90
28677;DHT22;15858;48.338;11.078;2022-08-18T09:24:50;22.80;99.90
28677;DHT22;15858;48.338;11.078;2022-08-18T09:27:37;22.90;99.90
28677;DHT22;15858;48.338;11.078;2022-08-18T09:33:20;23.30;99.90
28677;DHT22;15858;48.338;11.078;2022-08-18T09:36:09;23.40;99.90
28677;DHT22;15858;48.338;11.078;2022-08-18T09:38:54;23.70;99.90
28677;DHT22;15858;48.338;11.078;2022-08-18T09:41:25;23.70;99.90
28677;DHT22;15858;48.338;11.078;2022-08-18T09:44:08;23.60;99.90
28677;DHT22;15858;48.338;11.078;2022-08-18T09:51:54;23.90;99.90
28677;DHT22;15858;48.338;11.078;2022-08-18T09:54:29;24.00;99.90
28677;DHT22;15858;48.338;11.078;2022-08-18T09:57:14;23.80;99.90
28677;DHT22;15858;48.338;11.078;2022-08-18T10:05:26;24.30;99.90
28677;DHT22;15858;48.338;11.078;2022-08-18T10:10:45;24.50;99.90
28677;DHT22;15858;48.338;11.078;2022-08-18T10:19:49;24.80;99.90
28677;DHT22;15858;48.338;11.078;2022-08-18T10:22:37;25.10;99.90
28677;DHT22;15858;48.338;11.078;2022-08-18T10:25:04;25.20;99.90
28677;DHT22;15858;48.338;11.078;2022-08-18T10:27:52;25.20;99.90
28677;DHT22;15858;48.338;11.078;2022-08-18T10:33:03;25.50;99.90
28677;DHT22;15858;48.338;11.078;2022-08-18T10:35:58;25.70;99.90
28677;DHT22;15858;48.338;11.078;2022-08-18T10:38:45;25.60;99.90
28677;DHT22;15858;48.338;11.078;2022-08-18T10:41:22;25.80;99.90
28677;DHT22;15858;48.338;11.078;2022-08-18T10:43:51;25.90;99.90
28677;DHT22;15858;48.338;11.078;2022-08-18T10:46:26;26.00;99.90
28677;DHT22;15858;48.338;11.078;2022-08-18T10:49:00;26.10;99.90
28677;DHT22;15858;48.338;11.078;2022-08-18T10:51:54;25.80;99.90
28677;DHT22;15858;48.338;11.078;2022-08-18T10:57:26;26.10;99.90
28677;DHT22;15858;48.338;11.078;2022-08-18T11:00:09;26.30;99.90
28677;DHT22;15858;48.338;11.078;2022-08-18T11:03:09;26.50;99.90
28677;DHT22;15858;48.338;11.078;2022-08-18T11:06:07;26.60;99.90
28677;DHT22;15858;48.338;11.078;2022-08-18T11:08:46;26.10;99.90
28677;DHT22;15858;48.338;11.078;2022-08-18T11:11:54;26.10;99.90
28677;DHT22;15858;48.338;11.078;2022-08-18T11:14:33;26.20;99.90
28677;DHT22;15858;48.338;11.078;2022-08-18T11:17:15;26.30;99.90
28677;DHT22;15858;48.338;11.078;2022-08-18T11:19:47;26.40;99.90
28677;DHT22;15858;48.338;11.078;2022-08-18T11:22:31;26.60;99.90
28677;DHT22;15858;48.338;11.078;2022-08-18T11:25:04;26.70;99.90
28677;DHT22;15858;48.338;11.078;2022-08-18T11:27:45;26.90;99.90
28677;DHT22;15858;48.338;11.078;2022-08-18T11:30:14;26.90;99.90
28677;DHT22;15858;48.338;11.078;2022-08-18T11:32:43;27.00;99.90
28677;DHT22;15858;48.338;11.078;2022-08-18T11:38:18;26.90;99.90
28677;DHT22;15858;48.338;11.078;2022-08-18T11:40:51;26.60;99.90
28677;DHT22;15858;48.338;11.078;2022-08-18T11:43:37;26.50;99.90
28677;DHT22;15858;48.338;11.078;2022-08-18T11:46:34;26.50;99.90
28677;DHT22;15858;48.338;11.078;2022-08-18T11:49:15;26.80;99.90
28677;DHT22;15858;48.338;11.078;2022-08-18T11:52:01;26.70;99.90
28677;DHT22;15858;48.338;11.078;2022-08-18T11:54:39;26.90;99.90
28677;DHT22;15858;48.338;11.078;2022-08-18T11:57:28;27.10;99.90
28677;DHT22;15858;48.338;11.078;2022-08-18T11:59:55;27.30;99.90
28677;DHT22;15858;48.338;11.078;2022-08-18T12:02:41;27.30;99.90
28677;DHT22;15858;48.338;11.078;2022-08-18T12:05:08;27.00;99.90
28677;DHT22;15858;48.338;11.078;2022-08-18T12:07:40;27.20;99.90
28677;DHT22;15858;48.338;11.078;2022-08-18T12:10:25;27.10;99.90
28677;DHT22;15858;48.338;11.078;2022-08-18T12:12:55;27.10;99.90
28677;DHT22;15858;48.338;11.078;2022-08-18T12:15:31;26.80;99.90
28677;DHT22;15858;48.338;11.078;2022-08-18T12:18:18;26.80;99.90
28677;DHT22;15858;48.338;11.078;2022-08-18T12:21:05;26.90;99.90
28677;DHT22;15858;48.338;11.078;2022-08-18T12:23:33;27.10;99.90
28677;DHT22;15858;48.338;11.078;2022-08-18T12:26:15;27.00;99.90
28677;DHT22;15858;48.338;11.078;2022-08-18T12:29:02;26.90;99.90
28677;DHT22;15858;48.338;11.078;2022-08-18T12:31:29;27.20;99.90
28677;DHT22;15858;48.338;11.078;2022-08-18T12:34:13;27.50;99.90
28677;DHT22;15858;48.338;11.078;2022-08-18T12:36:41;27.40;99.90
28677;DHT22;15858;48.338;11.078;2022-08-18T12:39:09;27.30;99.90
28677;DHT22;15858;48.338;11.078;2022-08-18T12:41:36;27.20;99.90
28677;DHT22;15858;48.338;11.078;2022-08-18T12:44:03;27.30;99.90
28677;DHT22;15858;48.338;11.078;2022-08-18T12:46:39;27.50;99.90
28677;DHT22;15858;48.338;11.078;2022-08-18T12:49:15;27.60;99.90
28677;DHT22;15858;48.338;11.078;2022-08-18T12:51:43;27.60;99.90
28677;DHT22;15858;48.338;11.078;2022-08-18T12:54:16;27.50;99.90
28677;DHT22;15858;48.338;11.078;2022-08-18T12:56:50;27.30;99.90
28677;DHT22;15858;48.338;11.078;2022-08-18T12:59:18;27.20;99.90
28677;DHT22;15858;48.338;11.078;2022-08-18T13:01:45;27.10;99.90
28677;DHT22;15858;48.338;11.078;2022-08-18T13:04:12;27.00;99.90
28677;DHT22;15858;48.338;11.078;2022-08-18T13:06:50;27.10;99.90
28677;DHT22;15858;48.338;11.078;2022-08-18T13:09:31;27.20;99.90
28677;DHT22;15858;48.338;11.078;2022-08-18T13:12:18;26.80;99.90
28677;DHT22;15858;48.338;11.078;2022-08-18T13:14:46;26.90;99.90
28677;DHT22;15858;48.338;11.078;2022-08-18T13:17:14;26.90;99.90
28677;DHT22;15858;48.338;11.078;2022-08-18T13:20:06;27.00;99.90
28677;DHT22;15858;48.338;11.078;2022-08-18T13:22:34;26.80;99.90
28677;DHT22;15858;48.338;11.078;2022-08-18T13:25:02;26.90;99.90
28677;DHT22;15858;48.338;11.078;2022-08-18T13:27:31;26.70;99.90
28677;DHT22;15858;48.338;11.078;2022-08-18T13:30:05;26.80;99.90
28677;DHT22;15858;48.338;11.078;2022-08-18T13:32:53;26.60;99.90
28677;DHT22;15858;48.338;11.078;2022-08-18T13:35:27;26.50;99.90
28677;DHT22;15858;48.338;11.078;2022-08-18T13:38:04;26.50;99.90
28677;DHT22;15858;48.338;11.078;2022-08-18T13:40:45;26.40;99.90
28677;DHT22;15858;48.338;11.078;2022-08-18T13:43:13;26.30;99.90
28677;DHT22;15858;48.338;11.078;2022-08-18T13:45:43;26.40;99.90
28677;DHT22;15858;48.338;11.078;2022-08-18T13:48:10;26.50;99.90
28677;DHT22;15858;48.338;11.078;2022-08-18T13:50:38;26.50;99.90
28677;DHT22;15858;48.338;11.078;2022-08-18T13:53:12;26.40;99.90
28677;DHT22;15858;48.338;11.078;2022-08-18T13:55:39;26.40;99.90
28677;DHT22;15858;48.338;11.078;2022-08-18T13:58:06;26.60;99.90
28677;DHT22;15858;48.338;11.078;2022-08-18T14:00:47;26.60;99.90
28677;DHT22;15858;48.338;11.078;2022-08-18T14:03:14;26.50;99.90
28677;DHT22;15858;48.338;11.078;2022-08-18T14:06:02;26.60;99.90
28677;DHT22;15858;48.338;11.078;2022-08-18T14:08:32;26.50;99.90
28677;DHT22;15858;48.338;11.078;2022-08-18T14:11:01;26.40;99.90
28677;DHT22;15858;48.338;11.078;2022-08-18T14:13:28;26.30;99.90
28677;DHT22;15858;48.338;11.078;2022-08-18T14:16:03;26.30;99.90
28677;DHT22;15858;48.338;11.078;2022-08-18T14:18:30;26.30;99.90
28677;DHT22;15858;48.338;11.078;2022-08-18T14:20:57;26.30;99.90
28677;DHT22;15858;48.338;11.078;2022-08-18T14:23:24;26.30;99.90
28677;DHT22;15858;48.338;11.078;2022-08-18T14:25:59;26.40;99.90
28677;DHT22;15858;48.338;11.078;2022-08-18T14:28:27;26.30;99.90
28677;DHT22;15858;48.338;11.078;2022-08-18T14:30:54;26.20;99.90
28677;DHT22;15858;48.338;11.078;2022-08-18T14:33:24;26.20;99.90
28677;DHT22;15858;48.338;11.078;2022-08-18T14:36:12;26.00;99.90
28677;DHT22;15858;48.338;11.078;2022-08-18T14:38:39;26.10;99.90
28677;DHT22;15858;48.338;11.078;2022-08-18T14:41:09;26.10;99.90
28677;DHT22;15858;48.338;11.078;2022-08-18T14:43:36;25.90;99.90
28677;DHT22;15858;48.338;11.078;2022-08-18T14:46:23;25.90;99.90
28677;DHT22;15858;48.338;11.078;2022-08-18T14:48:58;25.70;99.90
28677;DHT22;15858;48.338;11.078;2022-08-18T14:51:25;25.80;99.90
28677;DHT22;15858;48.338;11.078;2022-08-18T14:53:53;25.80;99.90
28677;DHT22;15858;48.338;11.078;2022-08-18T14:56:21;25.80;99.90
28677;DHT22;15858;48.338;11.078;2022-08-18T14:58:53;25.70;99.90
28677;DHT22;15858;48.338;11.078;2022-08-18T15:01:21;25.70;99.90
28677;DHT22;15858;48.338;11.078;2022-08-18T15:03:48;25.70;99.90
28677;DHT22;15858;48.338;11.078;2022-08-18T15:06:16;25.60;99.90
28677;DHT22;15858;48.338;11.078;2022-08-18T15:08:53;25.60;99.90
28677;DHT22;15858;48.338;11.078;2022-08-18T15:11:19;25.60;99.90
28677;DHT22;15858;48.338;11.078;2022-08-18T15:13:49;25.50;99.90
28677;DHT22;15858;48.338;11.078;2022-08-18T15:16:16;25.60;99.90
28677;DHT22;15858;48.338;11.078;2022-08-18T15:18:44;25.50;99.90
28677;DHT22;15858;48.338;11.078;2022-08-18T15:21:15;25.40;99.90
28677;DHT22;15858;48.338;11.078;2022-08-18T15:24:02;25.40;99.90
28677;DHT22;15858;48.338;11.078;2022-08-18T15:26:29;25.30;99.90
28677;DHT22;15858;48.338;11.078;2022-08-18T15:28:55;25.20;99.90
28677;DHT22;15858;48.338;11.078;2022-08-18T15:31:34;25.20;99.90
28677;DHT22;15858;48.338;11.078;2022-08-18T15:34:17;25.20;99.90
28677;DHT22;15858;48.338;11.078;2022-08-18T15:36:47;25.20;99.90
28677;DHT22;15858;48.338;11.078;2022-08-18T15:39:15;25.20;99.90
28677;DHT22;15858;48.338;11.078;2022-08-18T15:41:44;25.20;99.90
28677;DHT22;15858;48.338;11.078;2022-08-18T15:44:12;25.10;99.90
28677;DHT22;15858;48.338;11.078;2022-08-18T15:46:40;25.10;99.90
28677;DHT22;15858;48.338;11.078;2022-08-18T15:49:06;25.00;99.90
28677;DHT22;15858;48.338;11.078;2022-08-18T15:51:41;25.10;99.90
28677;DHT22;15858;48.338;11.078;2022-08-18T15:54:10;24.90;99.90
28677;DHT22;15858;48.338;11.078;2022-08-18T15:56:38;24.90;99.90
28677;DHT22;15858;48.338;11.078;2022-08-18T15:59:08;24.90;99.90
28677;DHT22;15858;48.338;11.078;2022-08-18T16:01:35;24.80;99.90
28677;DHT22;15858;48.338;11.078;2022-08-18T16:04:08;24.80;99.90
28677;DHT22;15858;48.338;11.078;2022-08-18T16:06:39;24.80;99.90
28677;DHT22;15858;48.338;11.078;2022-08-18T16:09:07;24.80;99.90
28677;DHT22;15858;48.338;11.078;2022-08-18T16:11:33;24.80;99.90
28677;DHT22;15858;48.338;11.078;2022-08-18T16:14:00;24.80;99.90
28677;DHT22;15858;48.338;11.078;2022-08-18T16:16:27;24.80;99.90
28677;DHT22;15858;48.338;11.078;2022-08-18T16:19:03;24.80;99.90
28677;DHT22;15858;48.338;11.078;2022-08-18T16:21:30;24.70;99.90
28677;DHT22;15858;48.338;11.078;2022-08-18T16:23:57;24.70;99.90
28677;DHT22;15858;48.338;11.078;2022-08-18T16:26:23;24.70;99.90
28677;DHT22;15858;48.338;11.078;2022-08-18T16:28:51;24.70;99.90
28677;DHT22;15858;48.338;11.078;2022-08-18T16:31:20;24.70;99.90
28677;DHT22;15858;48.338;11.078;2022-08-18T16:33:47;24.60;99.90
28677;DHT22;15858;48.338;11.078;2022-08-18T16:36:14;24.50;99.90
28677;DHT22;15858;48.338;11.078;2022-08-18T16:38:40;24.40;99.90
28677;DHT22;15858;48.338;11.078;2022-08-18T16:41:14;24.40;99.90
28677;DHT22;15858;48.338;11.078;2022-08-18T16:43:43;24.30;99.90
28677;DHT22;15858;48.338;11.078;2022-08-18T16:46:18;24.30;99.90
28677;DHT22;15858;48.338;11.078;2022-08-18T16:48:45;24.30;99.90
28677;DHT22;15858;48.338;11.078;2022-08-18T16:51:14;24.30;99.90
28677;DHT22;15858;48.338;11.078;2022-08-18T16:53:41;24.20;99.90
28677;DHT22;15858;48.338;11.078;2022-08-18T16:56:13;24.20;99.90
28677;DHT22;15858;48.338;11.078;2022-08-18T16:58:40;24.10;99.90
28677;DHT22;15858;48.338;11.078;2022-08-18T17:01:07;24.00;99.90
28677;DHT22;15858;48.338;11.078;2022-08-18T17:03:37;23.80;99.90
28677;DHT22;15858;48.338;11.078;2022-08-18T17:06:06;23.80;99.90
28677;DHT22;15858;48.338;11.078;2022-08-18T17:08:34;23.70;99.90
28677;DHT22;15858;48.338;11.078;2022-08-18T17:11:03;23.60;99.90
28677;DHT22;15858;48.338;11.078;2022-08-18T17:13:31;23.50;99.90
28677;DHT22;15858;48.338;11.078;2022-08-18T17:15:58;23.50;99.90
28677;DHT22;15858;48.338;11.078;2022-08-18T17:18:25;23.40;99.90
28677;DHT22;15858;48.338;11.078;2022-08-18T17:20:52;23.50;99.90
28677;DHT22;15858;48.338;11.078;2022-08-18T17:23:21;23.40;99.90
28677;DHT22;15858;48.338;11.078;2022-08-18T17:25:48;23.40;99.90
28677;DHT22;15858;48.338;11.078;2022-08-18T17:28:18;23.30;99.90
28677;DHT22;15858;48.338;11.078;2022-08-18T17:30:51;23.10;99.90
28677;DHT22;15858;48.338;11.078;2022-08-18T17:33:22;23.00;99.90
28677;DHT22;15858;48.338;11.078;2022-08-18T17:35:50;23.00;99.90
28677;DHT22;15858;48.338;11.078;2022-08-18T17:38:24;22.90;99.90
28677;DHT22;15858;48.338;11.078;2022-08-18T17:40:55;22.80;99.90
28677;DHT22;15858;48.338;11.078;2022-08-18T17:43:27;22.80;99.90
28677;DHT22;15858;48.338;11.078;2022-08-18T17:46:05;22.70;99.90
28677;DHT22;15858;48.338;11.078;2022-08-18T17:48:39;22.70;99.90